Airfield :
LOGIN :

Register | Disclaimer

   EN    FR    IT 

 










Legend :    VFR   Marginal VFR   IFR   Intensive IFR   Very Intensive IFR
Visi :
Ceiling :
>= 8 km
>= 3000ft
5 to 8 km
1000 to 3000 ft
1500m to 5 km
500 to 1000 ft
800 to 1500m
200 to 500 ft
< 800m
< 200 ft
Symbols :   Thunderstorms  Fog  Heavy snow  Heavy precipitations  Wind > 20 kt
SIGMETs :     Misc.  Thunderstorms  Icing  Turbulence  Mountain Waves  Volcanic Ashes






- Airport Elevation : 885 ft
- IATA code : BAS


LFSB - Bale-Mulhouse

CURRENT METAR :
  • 161600Z 28009KT 9999 FEW022 BKN033 BKN043 17/14 Q1020 NOSIG

EXPIRED METARs :
  • 161530Z 26008KT 220V280 9999 FEW030 BKN036 BKN046 18/14 Q1020 NOSIG
  • 161500Z 26006KT 220V280 9999 FEW030 SCT036 BKN043 18/14 Q1020 NOSIG
  • 161430Z 25006KT 210V280 9999 FEW020 SCT022 BKN036 17/14 Q1020 NOSIG
  • 161400Z 25008KT 200V300 9999 FEW020 BKN022 BKN030 18/13 Q1020 NOSIG
  • 161330Z 25006KT 220V290 9999 FEW023 BKN036 BKN050 18/13 Q1020 NOSIG

TAF TAF LFSB
Valid from the 16 at 12:00 until the 17 at 12:00 UTC


161100Z 1612/1712 27010KT 9999 SCT035 BKN045
PROB40
TEMPO 1701/1706 -RA BKN014
BECMG 1708/1710 36010KT
Met : +33 3 89 90 31 11



MET'MAP, your aeronautical weather chart ! - Copyright ORBIFLY December 2007 - Disclaimer

ORBIFLY MET'MAP TEAM :

Programming & Development : Alexandra Zaïnal
Concept & original design : Baudouin d'Aumeries
Assistance for programming : Marc-Olivier Méhu
Technical & hardware support : Manuel Goepfert

Contact : metmap@orbifly.com




SOURCES & CREDITS :

   NOAA